AUA27 LOWG-LOWW
Flight info
| Callsign | AUA27 |
|---|---|
| Flight time | 0h 25m |
| Altitude | 11000 |
| Route | ROPAG4G ROPAG DCT NIGSI NIGSI2W |
| Aircraft | A20N/M-SDE2E3FGHIRWXY/LB1 |
Departure
| Time | 2026-05-04 09:25 |
|---|---|
| Airport | Graz Airport (LOWG) |
Arrival
| Time | 2026-05-04 09:51 |
|---|---|
| Airport | Vienna International Airport (LOWW) |
| Time | Latitude | Longitude | Altitude | Speed | Heading |
|---|---|---|---|---|---|
| 2026-05-04 09:09 | 46.99587 | 15.44324 | 1113 ft | 0 kts | 127° |
| 2026-05-04 09:17 | 46.99606 | 15.44214 | 1109 ft | 2 kts | 36° |
| 2026-05-04 09:18 | 46.99619 | 15.44220 | 1107 ft | 2 kts | 10° |
| 2026-05-04 09:18 | 46.99624 | 15.44219 | 1108 ft | 0 kts | 360° |
| 2026-05-04 09:19 | 46.99629 | 15.44219 | 1110 ft | 3 kts | 358° |
| 2026-05-04 09:19 | 46.99659 | 15.44214 | 1107 ft | 6 kts | 350° |
| 2026-05-04 09:19 | 46.99679 | 15.44208 | 1110 ft | 0 kts | 348° |
| 2026-05-04 09:20 | 46.99685 | 15.44206 | 1109 ft | 6 kts | 348° |
| 2026-05-04 09:20 | 46.99752 | 15.44187 | 1115 ft | 12 kts | 349° |
| 2026-05-04 09:20 | 46.99842 | 15.44163 | 1108 ft | 14 kts | 349° |
| 2026-05-04 09:21 | 46.99943 | 15.44138 | 1117 ft | 15 kts | 349° |
| 2026-05-04 09:21 | 47.00047 | 15.44106 | 1115 ft | 14 kts | 348° |
| 2026-05-04 09:21 | 47.00150 | 15.44079 | 1113 ft | 16 kts | 349° |
| 2026-05-04 09:21 | 47.00246 | 15.44051 | 1117 ft | 14 kts | 349° |
| 2026-05-04 09:22 | 47.00326 | 15.43977 | 1118 ft | 14 kts | 309° |
| 2026-05-04 09:22 | 47.00383 | 15.43859 | 1117 ft | 11 kts | 304° |
| 2026-05-04 09:22 | 47.00428 | 15.43756 | 1118 ft | 13 kts | 298° |
| 2026-05-04 09:22 | 47.00423 | 15.43637 | 1121 ft | 12 kts | 236° |
| 2026-05-04 09:23 | 47.00379 | 15.43613 | 1120 ft | 0 kts | 173° |
| 2026-05-04 09:23 | 47.00205 | 15.43662 | 1114 ft | 63 kts | 168° |
| 2026-05-04 09:23 | 46.99536 | 15.43846 | 1107 ft | 129 kts | 169° |
| 2026-05-04 09:23 | 46.98514 | 15.44141 | 1267 ft | 162 kts | 168° |
| 2026-05-04 09:25 | 46.92941 | 15.51652 | 5466 ft | 261 kts | 59° |
| 2026-05-04 09:25 | 46.94189 | 15.53571 | 6301 ft | 269 kts | 32° |
| 2026-05-04 09:26 | 46.95900 | 15.54920 | 6942 ft | 287 kts | 25° |
| 2026-05-04 09:26 | 46.97681 | 15.56211 | 7879 ft | 291 kts | 27° |
| 2026-05-04 09:26 | 46.99460 | 15.57668 | 8846 ft | 296 kts | 30° |
| 2026-05-04 09:26 | 47.01216 | 15.59277 | 9830 ft | 300 kts | 33° |
| 2026-05-04 09:27 | 47.02979 | 15.61006 | 10520 ft | 313 kts | 34° |
| 2026-05-04 09:27 | 47.04833 | 15.62893 | 10840 ft | 338 kts | 35° |
| 2026-05-04 09:27 | 47.06815 | 15.64935 | 10971 ft | 354 kts | 35° |
| 2026-05-04 09:27 | 47.08830 | 15.67009 | 10976 ft | 354 kts | 35° |
| 2026-05-04 09:28 | 47.10846 | 15.69083 | 10980 ft | 354 kts | 35° |
| 2026-05-04 09:28 | 47.12837 | 15.71130 | 10989 ft | 354 kts | 35° |
| 2026-05-04 09:28 | 47.14854 | 15.73203 | 10988 ft | 355 kts | 35° |
| 2026-05-04 09:28 | 47.16877 | 15.75287 | 10992 ft | 355 kts | 35° |
| 2026-05-04 09:29 | 47.18899 | 15.77371 | 10990 ft | 355 kts | 35° |
| 2026-05-04 09:29 | 47.20912 | 15.79488 | 10983 ft | 355 kts | 39° |
| 2026-05-04 09:29 | 47.22721 | 15.81944 | 10985 ft | 355 kts | 47° |
| 2026-05-04 09:29 | 47.24433 | 15.84574 | 10987 ft | 356 kts | 46° |
| 2026-05-04 09:30 | 47.26146 | 15.87181 | 10988 ft | 354 kts | 46° |
| 2026-05-04 09:30 | 47.27864 | 15.89787 | 10988 ft | 355 kts | 46° |
| 2026-05-04 09:30 | 47.29587 | 15.92401 | 10982 ft | 355 kts | 46° |
| 2026-05-04 09:30 | 47.31277 | 15.94970 | 10995 ft | 353 kts | 46° |
| 2026-05-04 09:31 | 47.32993 | 15.97583 | 10995 ft | 359 kts | 47° |
| 2026-05-04 09:31 | 47.34731 | 16.00240 | 10980 ft | 358 kts | 47° |
| 2026-05-04 09:31 | 47.36573 | 16.02658 | 10981 ft | 355 kts | 36° |
| 2026-05-04 09:31 | 47.38744 | 16.04462 | 10983 ft | 361 kts | 23° |
| 2026-05-04 09:32 | 47.41100 | 16.05673 | 10986 ft | 357 kts | 18° |
| 2026-05-04 09:32 | 47.43458 | 16.06825 | 10821 ft | 355 kts | 19° |
| 2026-05-04 09:34 | 47.58337 | 16.14225 | 9382 ft | 311 kts | 19° |
| 2026-05-04 09:34 | 47.60386 | 16.15248 | 9124 ft | 309 kts | 18° |
| 2026-05-04 09:34 | 47.62405 | 16.16260 | 8867 ft | 304 kts | 18° |
| 2026-05-04 09:34 | 47.64416 | 16.17267 | 8621 ft | 306 kts | 18° |
| 2026-05-04 09:35 | 47.66406 | 16.18252 | 8366 ft | 304 kts | 18° |
| 2026-05-04 09:35 | 47.68396 | 16.19241 | 8111 ft | 298 kts | 18° |
| 2026-05-04 09:35 | 47.70354 | 16.20226 | 8035 ft | 299 kts | 18° |
| 2026-05-04 09:35 | 47.72326 | 16.21217 | 8013 ft | 297 kts | 18° |
| 2026-05-04 09:37 | 47.84207 | 16.33126 | 8011 ft | 294 kts | 41° |
| 2026-05-04 09:37 | 47.85778 | 16.35149 | 8010 ft | 303 kts | 41° |
| 2026-05-04 09:38 | 47.87374 | 16.37213 | 7911 ft | 302 kts | 41° |
| 2026-05-04 09:38 | 47.88972 | 16.39161 | 7766 ft | 294 kts | 31° |
| 2026-05-04 09:38 | 47.90892 | 16.40178 | 7659 ft | 297 kts | 5° |
| 2026-05-04 09:38 | 47.92933 | 16.39886 | 7534 ft | 294 kts | 339° |
| 2026-05-04 09:39 | 47.94644 | 16.38363 | 7416 ft | 285 kts | 313° |
| 2026-05-04 09:39 | 47.96018 | 16.36249 | 7300 ft | 288 kts | 309° |
| 2026-05-04 09:39 | 47.97376 | 16.34063 | 7177 ft | 287 kts | 310° |
| 2026-05-04 09:39 | 47.98756 | 16.31932 | 6983 ft | 284 kts | 313° |
| 2026-05-04 09:40 | 48.00159 | 16.29876 | 6742 ft | 282 kts | 314° |
| 2026-05-04 09:40 | 48.01588 | 16.27849 | 6507 ft | 283 kts | 315° |
| 2026-05-04 09:40 | 48.03034 | 16.25837 | 6264 ft | 285 kts | 315° |
| 2026-05-04 09:40 | 48.04478 | 16.23826 | 6008 ft | 281 kts | 315° |
| 2026-05-04 09:41 | 48.05897 | 16.21852 | 5753 ft | 278 kts | 315° |
| 2026-05-04 09:42 | 48.15693 | 16.08885 | 5002 ft | 244 kts | 343° |
| 2026-05-04 09:43 | 48.17360 | 16.08798 | 5002 ft | 246 kts | 13° |
| 2026-05-04 09:43 | 48.18962 | 16.09808 | 5003 ft | 255 kts | 25° |
| 2026-05-04 09:43 | 48.20507 | 16.10952 | 4993 ft | 248 kts | 25° |
| 2026-05-04 09:43 | 48.22021 | 16.12148 | 4985 ft | 247 kts | 36° |
| 2026-05-04 09:44 | 48.23127 | 16.14130 | 4998 ft | 255 kts | 66° |
| 2026-05-04 09:44 | 48.23498 | 16.16714 | 4990 ft | 250 kts | 94° |
| 2026-05-04 09:44 | 48.23195 | 16.19214 | 5006 ft | 243 kts | 110° |
| 2026-05-04 09:46 | 48.18482 | 16.34230 | 3410 ft | 222 kts | 117° |
| 2026-05-04 09:46 | 48.17882 | 16.36080 | 3144 ft | 215 kts | 117° |
| 2026-05-04 09:46 | 48.17384 | 16.37619 | 2919 ft | 210 kts | 118° |
| 2026-05-04 09:47 | 48.16753 | 16.39557 | 2666 ft | 204 kts | 118° |
| 2026-05-04 09:47 | 48.16160 | 16.41388 | 2390 ft | 186 kts | 117° |
| 2026-05-04 09:49 | 48.13188 | 16.50631 | 1018 ft | 125 kts | 121° |
| 2026-05-04 09:49 | 48.12798 | 16.51781 | 833 ft | 125 kts | 118° |
| 2026-05-04 09:49 | 48.12417 | 16.52933 | 695 ft | 125 kts | 119° |
| 2026-05-04 09:51 | 48.11510 | 16.56090 | 608 ft | 0 kts | 66° |
| 2026-05-04 09:52 | 48.11511 | 16.56095 | 611 ft | 1 kts | 65° |
| 2026-05-04 09:52 | 48.11566 | 16.56158 | 616 ft | 14 kts | 27° |
| 2026-05-04 09:53 | 48.11663 | 16.56246 | 619 ft | 18 kts | 31° |
| 2026-05-04 09:53 | 48.11755 | 16.56336 | 615 ft | 13 kts | 70° |
| 2026-05-04 09:53 | 48.11743 | 16.56442 | 616 ft | 7 kts | 66° |
| 2026-05-04 09:53 | 48.11792 | 16.56490 | 619 ft | 9 kts | 25° |
| 2026-05-04 09:54 | 48.11810 | 16.56504 | 608 ft | 0 kts | 26° |